Startpagina
METAR-TAF:

METAR-TAF

Vliegvelden :

Amman, Jordanië

breedte: 31-59N, lengte: 035-59E, hoogte: 767 m

Actueel weer

Dit bericht is 1 uur en het 5 minuten geleden gemaakt, om 20:00 UTC
Weinig wind
Temperatuur 9°C
Vochtigheid 81%
Druk 1020 hPa
Zicht: 6000 m

METAR: OJAM 162000Z 00000KT 6000 NSC 09/06 Q1020 NOSIG

Tijdstip: 23:05 (21:05 UTC)

Verwachting

Dit bericht is 4 uur en het 15 minuten geleden gemaakt, om 16:50 UTC
Verwachting geldig van 16 om 18 UTC tot 17 om 24 UTC
Wind 2 kt uit variabele richting
Zicht: 5000 m
Verspreide wolken op 3000 ft
nevel
Kans 30%
van 17 om 02 UTC tot 17 om 07 UTC
Zicht: 0800 m
mist
Tijdelijke
van 17 om 10 UTC tot 17 om 18 UTC
Wind 10 kt uit het westen
Zicht: 3000 m
Verspreide wolken op 3000 ft
Gebroken wolken op 3500 ft
lichte regenbuien

TAF: OJAM 161650Z 1618/1724 VRB02KT 5000 BR SCT030 PROB30 1702/1707 0800 FG TEMPO 1710/1718 26010KT 3000 -SHRA SCT030 BKN035

Waarnemingen en weersverwachtingen van meer dan 4000 vliegvelden (METAR en TAF).

De beschikbare stations zijn de gele en rode punten op de kaart.

Ga met uw muis naar het station om de naam te zien.

Klik dan om waarnemingen en weersverwachtingen te zien.

kaart wijzigen: klik op de groene knoppen met een zwart kruis om in te zoomen, op de groene knop met een streepje om uit te zoomen of op de groene pijlen voor aangrenzende kaarten.


METAR-TAF: